sensor_id;sensor_type;location;lat;lon;timestamp;P1;durP1;ratioP1;P2;durP2;ratioP2
16813;SDS011;8524;57.650;11.926;2022-08-11T00:01:43;1.90;;;1.70;;
16813;SDS011;8524;57.650;11.926;2022-08-11T00:04:11;1.90;;;1.53;;
16813;SDS011;8524;57.650;11.926;2022-08-11T00:06:40;1.87;;;1.40;;
16813;SDS011;8524;57.650;11.926;2022-08-11T00:09:09;3.47;;;1.90;;
16813;SDS011;8524;57.650;11.926;2022-08-11T00:11:40;2.90;;;1.90;;
16813;SDS011;8524;57.650;11.926;2022-08-11T00:14:12;2.70;;;1.70;;
16813;SDS011;8524;57.650;11.926;2022-08-11T00:16:40;1.70;;;1.60;;
16813;SDS011;8524;57.650;11.926;2022-08-11T00:19:20;2.73;;;1.80;;
16813;SDS011;8524;57.650;11.926;2022-08-11T00:21:48;2.77;;;1.80;;
16813;SDS011;8524;57.650;11.926;2022-08-11T00:24:15;1.70;;;1.60;;
16813;SDS011;8524;57.650;11.926;2022-08-11T00:26:47;1.83;;;1.70;;
16813;SDS011;8524;57.650;11.926;2022-08-11T00:29:15;2.70;;;1.80;;
16813;SDS011;8524;57.650;11.926;2022-08-11T00:31:43;2.73;;;1.93;;
16813;SDS011;8524;57.650;11.926;2022-08-11T00:34:12;4.03;;;2.00;;
16813;SDS011;8524;57.650;11.926;2022-08-11T00:36:44;2.70;;;2.03;;
16813;SDS011;8524;57.650;11.926;2022-08-11T00:39:17;2.63;;;1.93;;
16813;SDS011;8524;57.650;11.926;2022-08-11T00:41:54;2.93;;;1.90;;
16813;SDS011;8524;57.650;11.926;2022-08-11T00:44:38;2.40;;;1.88;;
16813;SDS011;8524;57.650;11.926;2022-08-11T00:47:16;3.03;;;1.77;;
16813;SDS011;8524;57.650;11.926;2022-08-11T00:49:57;3.73;;;2.10;;
16813;SDS011;8524;57.650;11.926;2022-08-11T00:52:48;2.70;;;2.30;;
16813;SDS011;8524;57.650;11.926;2022-08-11T00:59:03;2.93;;;2.33;;
16813;SDS011;8524;57.650;11.926;2022-08-11T01:01:59;2.60;;;2.17;;
16813;SDS011;8524;57.650;11.926;2022-08-11T01:04:57;3.30;;;2.20;;
16813;SDS011;8524;57.650;11.926;2022-08-11T01:08:13;3.70;;;2.50;;
16813;SDS011;8524;57.650;11.926;2022-08-11T01:14:10;3.03;;;2.33;;
16813;SDS011;8524;57.650;11.926;2022-08-11T01:20:14;3.80;;;2.20;;
16813;SDS011;8524;57.650;11.926;2022-08-11T01:29:27;4.20;;;2.43;;
16813;SDS011;8524;57.650;11.926;2022-08-11T01:35:32;5.60;;;2.63;;
16813;SDS011;8524;57.650;11.926;2022-08-11T01:47:38;2.77;;;2.27;;
16813;SDS011;8524;57.650;11.926;2022-08-11T01:50:17;3.47;;;2.20;;
16813;SDS011;8524;57.650;11.926;2022-08-11T01:52:58;2.73;;;2.40;;
16813;SDS011;8524;57.650;11.926;2022-08-11T01:55:36;2.67;;;2.20;;
16813;SDS011;8524;57.650;11.926;2022-08-11T01:58:12;5.07;;;2.50;;
16813;SDS011;8524;57.650;11.926;2022-08-11T02:00:48;2.70;;;2.20;;
16813;SDS011;8524;57.650;11.926;2022-08-11T02:03:23;5.00;;;2.60;;
16813;SDS011;8524;57.650;11.926;2022-08-11T02:06:03;5.17;;;2.17;;
16813;SDS011;8524;57.650;11.926;2022-08-11T02:08:56;4.17;;;2.30;;
16813;SDS011;8524;57.650;11.926;2022-08-11T02:11:29;2.80;;;2.13;;
16813;SDS011;8524;57.650;11.926;2022-08-11T02:13:59;3.97;;;2.30;;
16813;SDS011;8524;57.650;11.926;2022-08-11T02:16:46;4.37;;;2.20;;
16813;SDS011;8524;57.650;11.926;2022-08-11T02:19:21;3.30;;;2.07;;
16813;SDS011;8524;57.650;11.926;2022-08-11T02:22:17;5.33;;;2.53;;
16813;SDS011;8524;57.650;11.926;2022-08-11T02:25:10;3.90;;;2.20;;
16813;SDS011;8524;57.650;11.926;2022-08-11T02:27:47;3.17;;;2.37;;
16813;SDS011;8524;57.650;11.926;2022-08-11T02:30:19;3.23;;;2.40;;
16813;SDS011;8524;57.650;11.926;2022-08-11T02:32:54;3.77;;;2.20;;
16813;SDS011;8524;57.650;11.926;2022-08-11T02:35:45;3.90;;;2.40;;
16813;SDS011;8524;57.650;11.926;2022-08-11T02:38:19;5.23;;;2.30;;
16813;SDS011;8524;57.650;11.926;2022-08-11T02:41:01;3.03;;;2.50;;
16813;SDS011;8524;57.650;11.926;2022-08-11T02:44:03;3.83;;;2.50;;
16813;SDS011;8524;57.650;11.926;2022-08-11T02:46:49;4.73;;;2.60;;
16813;SDS011;8524;57.650;11.926;2022-08-11T02:49:31;3.20;;;2.37;;
16813;SDS011;8524;57.650;11.926;2022-08-11T02:52:23;3.43;;;2.40;;
16813;SDS011;8524;57.650;11.926;2022-08-11T02:57:51;2.80;;;2.20;;
16813;SDS011;8524;57.650;11.926;2022-08-11T03:00:23;2.93;;;2.33;;
16813;SDS011;8524;57.650;11.926;2022-08-11T03:02:59;3.08;;;2.40;;
16813;SDS011;8524;57.650;11.926;2022-08-11T03:08:47;2.73;;;2.00;;
16813;SDS011;8524;57.650;11.926;2022-08-11T03:11:20;2.40;;;2.03;;
16813;SDS011;8524;57.650;11.926;2022-08-11T03:14:18;2.37;;;1.87;;
16813;SDS011;8524;57.650;11.926;2022-08-11T03:17:12;2.30;;;2.00;;
16813;SDS011;8524;57.650;11.926;2022-08-11T03:19:49;3.27;;;2.33;;
16813;SDS011;8524;57.650;11.926;2022-08-11T03:22:26;2.77;;;2.00;;
16813;SDS011;8524;57.650;11.926;2022-08-11T03:24:59;3.03;;;2.33;;
16813;SDS011;8524;57.650;11.926;2022-08-11T03:27:33;2.37;;;2.17;;
16813;SDS011;8524;57.650;11.926;2022-08-11T03:30:13;4.00;;;2.17;;
16813;SDS011;8524;57.650;11.926;2022-08-11T03:32:47;2.60;;;2.27;;
16813;SDS011;8524;57.650;11.926;2022-08-11T03:35:41;2.92;;;2.47;;
16813;SDS011;8524;57.650;11.926;2022-08-11T03:38:17;3.70;;;2.93;;
16813;SDS011;8524;57.650;11.926;2022-08-11T03:40:56;3.43;;;2.70;;
16813;SDS011;8524;57.650;11.926;2022-08-11T03:43:53;3.72;;;3.00;;
16813;SDS011;8524;57.650;11.926;2022-08-11T03:46:43;3.67;;;2.33;;
16813;SDS011;8524;57.650;11.926;2022-08-11T03:49:28;3.40;;;2.33;;
16813;SDS011;8524;57.650;11.926;2022-08-11T03:52:06;2.43;;;2.20;;
16813;SDS011;8524;57.650;11.926;2022-08-11T03:54:41;3.38;;;2.28;;
16813;SDS011;8524;57.650;11.926;2022-08-11T04:04:07;2.63;;;2.33;;
16813;SDS011;8524;57.650;11.926;2022-08-11T04:07:10;3.50;;;2.53;;
16813;SDS011;8524;57.650;11.926;2022-08-11T04:10:05;5.70;;;2.50;;
16813;SDS011;8524;57.650;11.926;2022-08-11T04:12:52;2.50;;;2.30;;
16813;SDS011;8524;57.650;11.926;2022-08-11T04:15:59;2.93;;;2.60;;
16813;SDS011;8524;57.650;11.926;2022-08-11T04:18:42;3.10;;;2.60;;
16813;SDS011;8524;57.650;11.926;2022-08-11T04:28:05;2.80;;;2.60;;
16813;SDS011;8524;57.650;11.926;2022-08-11T04:37:09;5.37;;;2.73;;
16813;SDS011;8524;57.650;11.926;2022-08-11T04:46:27;5.07;;;2.80;;
16813;SDS011;8524;57.650;11.926;2022-08-11T04:52:50;2.97;;;2.67;;
16813;SDS011;8524;57.650;11.926;2022-08-11T04:56:04;3.73;;;3.10;;
16813;SDS011;8524;57.650;11.926;2022-08-11T04:59:18;3.10;;;2.80;;
16813;SDS011;8524;57.650;11.926;2022-08-11T05:05:40;3.50;;;2.67;;
16813;SDS011;8524;57.650;11.926;2022-08-11T05:14:23;4.87;;;3.00;;
16813;SDS011;8524;57.650;11.926;2022-08-11T05:17:14;4.93;;;2.97;;
16813;SDS011;8524;57.650;11.926;2022-08-11T05:20:08;4.37;;;3.13;;
16813;SDS011;8524;57.650;11.926;2022-08-11T05:22:55;5.33;;;3.60;;
16813;SDS011;8524;57.650;11.926;2022-08-11T05:25:45;3.20;;;2.90;;
16813;SDS011;8524;57.650;11.926;2022-08-11T05:28:34;3.65;;;3.10;;
16813;SDS011;8524;57.650;11.926;2022-08-11T05:31:24;3.87;;;2.53;;
16813;SDS011;8524;57.650;11.926;2022-08-11T05:34:16;4.53;;;3.00;;
16813;SDS011;8524;57.650;11.926;2022-08-11T05:37:06;3.20;;;2.30;;
16813;SDS011;8524;57.650;11.926;2022-08-11T05:39:40;3.87;;;2.53;;
16813;SDS011;8524;57.650;11.926;2022-08-11T05:42:30;2.63;;;2.43;;
16813;SDS011;8524;57.650;11.926;2022-08-11T05:45:17;3.63;;;2.27;;
16813;SDS011;8524;57.650;11.926;2022-08-11T05:48:03;5.53;;;2.50;;
16813;SDS011;8524;57.650;11.926;2022-08-11T05:50:51;4.13;;;2.30;;
16813;SDS011;8524;57.650;11.926;2022-08-11T05:53:44;3.13;;;2.27;;
16813;SDS011;8524;57.650;11.926;2022-08-11T05:56:32;3.60;;;2.30;;
16813;SDS011;8524;57.650;11.926;2022-08-11T05:59:05;3.67;;;2.20;;
16813;SDS011;8524;57.650;11.926;2022-08-11T06:01:38;4.20;;;2.30;;
16813;SDS011;8524;57.650;11.926;2022-08-11T06:04:11;2.88;;;2.05;;
16813;SDS011;8524;57.650;11.926;2022-08-11T06:06:47;2.33;;;2.00;;
16813;SDS011;8524;57.650;11.926;2022-08-11T06:09:22;3.20;;;2.10;;
16813;SDS011;8524;57.650;11.926;2022-08-11T06:11:54;3.27;;;2.03;;
16813;SDS011;8524;57.650;11.926;2022-08-11T06:14:23;2.43;;;2.00;;
16813;SDS011;8524;57.650;11.926;2022-08-11T06:16:53;3.30;;;2.00;;
16813;SDS011;8524;57.650;11.926;2022-08-11T06:19:30;2.53;;;1.80;;
16813;SDS011;8524;57.650;11.926;2022-08-11T06:22:00;3.77;;;2.10;;
16813;SDS011;8524;57.650;11.926;2022-08-11T06:24:30;3.40;;;1.70;;
16813;SDS011;8524;57.650;11.926;2022-08-11T06:27:00;4.40;;;1.70;;
16813;SDS011;8524;57.650;11.926;2022-08-11T06:29:31;3.53;;;2.10;;
16813;SDS011;8524;57.650;11.926;2022-08-11T06:32:05;2.93;;;1.80;;
16813;SDS011;8524;57.650;11.926;2022-08-11T06:34:41;4.73;;;1.87;;
16813;SDS011;8524;57.650;11.926;2022-08-11T06:37:29;2.17;;;1.50;;
16813;SDS011;8524;57.650;11.926;2022-08-11T06:40:08;2.47;;;1.60;;
16813;SDS011;8524;57.650;11.926;2022-08-11T06:42:46;2.90;;;1.93;;
16813;SDS011;8524;57.650;11.926;2022-08-11T06:45:23;4.13;;;1.73;;
16813;SDS011;8524;57.650;11.926;2022-08-11T06:47:55;2.17;;;1.63;;
16813;SDS011;8524;57.650;11.926;2022-08-11T06:50:25;2.15;;;1.50;;
16813;SDS011;8524;57.650;11.926;2022-08-11T06:53:11;2.80;;;1.33;;
16813;SDS011;8524;57.650;11.926;2022-08-11T06:55:43;1.50;;;1.30;;
16813;SDS011;8524;57.650;11.926;2022-08-11T06:58:33;2.60;;;1.40;;
16813;SDS011;8524;57.650;11.926;2022-08-11T07:01:23;1.90;;;1.40;;
16813;SDS011;8524;57.650;11.926;2022-08-11T07:04:02;2.53;;;1.60;;
16813;SDS011;8524;57.650;11.926;2022-08-11T07:09:46;1.57;;;1.47;;
16813;SDS011;8524;57.650;11.926;2022-08-11T07:12:49;3.22;;;1.70;;
16813;SDS011;8524;57.650;11.926;2022-08-11T07:15:37;2.20;;;1.60;;
16813;SDS011;8524;57.650;11.926;2022-08-11T07:18:14;3.33;;;1.57;;
16813;SDS011;8524;57.650;11.926;2022-08-11T07:21:06;2.45;;;1.60;;
16813;SDS011;8524;57.650;11.926;2022-08-11T07:23:53;1.87;;;1.50;;
16813;SDS011;8524;57.650;11.926;2022-08-11T07:26:40;3.07;;;1.53;;
16813;SDS011;8524;57.650;11.926;2022-08-11T07:29:28;2.23;;;1.50;;
16813;SDS011;8524;57.650;11.926;2022-08-11T07:31:59;3.03;;;1.50;;
16813;SDS011;8524;57.650;11.926;2022-08-11T07:34:34;1.40;;;1.30;;
16813;SDS011;8524;57.650;11.926;2022-08-11T07:37:07;2.73;;;1.60;;
16813;SDS011;8524;57.650;11.926;2022-08-11T07:39:42;3.67;;;1.50;;
16813;SDS011;8524;57.650;11.926;2022-08-11T07:42:10;2.93;;;1.60;;
16813;SDS011;8524;57.650;11.926;2022-08-11T07:44:39;1.93;;;1.30;;
16813;SDS011;8524;57.650;11.926;2022-08-11T07:47:22;2.17;;;1.10;;
16813;SDS011;8524;57.650;11.926;2022-08-11T07:50:08;2.63;;;1.60;;
16813;SDS011;8524;57.650;11.926;2022-08-11T07:52:54;3.07;;;1.50;;
16813;SDS011;8524;57.650;11.926;2022-08-11T07:55:21;2.63;;;1.60;;
16813;SDS011;8524;57.650;11.926;2022-08-11T07:57:52;2.00;;;1.40;;
16813;SDS011;8524;57.650;11.926;2022-08-11T08:00:37;2.13;;;1.33;;
16813;SDS011;8524;57.650;11.926;2022-08-11T08:03:26;1.47;;;1.37;;
16813;SDS011;8524;57.650;11.926;2022-08-11T08:06:13;2.53;;;1.47;;
16813;SDS011;8524;57.650;11.926;2022-08-11T08:08:59;2.67;;;1.30;;
16813;SDS011;8524;57.650;11.926;2022-08-11T08:11:44;3.00;;;1.63;;
16813;SDS011;8524;57.650;11.926;2022-08-11T08:14:29;2.23;;;1.40;;
16813;SDS011;8524;57.650;11.926;2022-08-11T08:17:15;2.27;;;1.47;;
16813;SDS011;8524;57.650;11.926;2022-08-11T08:20:01;2.40;;;1.40;;
16813;SDS011;8524;57.650;11.926;2022-08-11T08:22:28;2.03;;;1.60;;
16813;SDS011;8524;57.650;11.926;2022-08-11T08:24:56;1.47;;;1.20;;
16813;SDS011;8524;57.650;11.926;2022-08-11T08:27:23;3.83;;;1.63;;
16813;SDS011;8524;57.650;11.926;2022-08-11T08:29:51;2.83;;;1.60;;
16813;SDS011;8524;57.650;11.926;2022-08-11T08:32:37;4.43;;;1.50;;
16813;SDS011;8524;57.650;11.926;2022-08-11T08:35:07;2.77;;;1.47;;
16813;SDS011;8524;57.650;11.926;2022-08-11T08:37:37;1.67;;;1.33;;
16813;SDS011;8524;57.650;11.926;2022-08-11T08:40:05;1.90;;;1.13;;
16813;SDS011;8524;57.650;11.926;2022-08-11T08:42:34;2.07;;;1.40;;
16813;SDS011;8524;57.650;11.926;2022-08-11T08:45:07;1.83;;;1.30;;
16813;SDS011;8524;57.650;11.926;2022-08-11T08:47:36;1.67;;;1.27;;
16813;SDS011;8524;57.650;11.926;2022-08-11T08:50:09;1.27;;;1.17;;
16813;SDS011;8524;57.650;11.926;2022-08-11T08:52:38;1.90;;;1.13;;
16813;SDS011;8524;57.650;11.926;2022-08-11T08:55:11;2.83;;;1.20;;
16813;SDS011;8524;57.650;11.926;2022-08-11T08:57:44;1.70;;;1.13;;
16813;SDS011;8524;57.650;11.926;2022-08-11T09:00:13;1.67;;;1.13;;
16813;SDS011;8524;57.650;11.926;2022-08-11T09:02:42;2.47;;;1.40;;
16813;SDS011;8524;57.650;11.926;2022-08-11T09:05:11;2.40;;;1.30;;
16813;SDS011;8524;57.650;11.926;2022-08-11T09:07:41;1.97;;;1.20;;
16813;SDS011;8524;57.650;11.926;2022-08-11T09:10:11;2.10;;;1.40;;
16813;SDS011;8524;57.650;11.926;2022-08-11T09:12:41;1.40;;;1.30;;
16813;SDS011;8524;57.650;11.926;2022-08-11T09:15:09;1.42;;;1.10;;
16813;SDS011;8524;57.650;11.926;2022-08-11T09:17:38;2.80;;;1.30;;
16813;SDS011;8524;57.650;11.926;2022-08-11T09:20:07;2.65;;;1.30;;
16813;SDS011;8524;57.650;11.926;2022-08-11T09:22:40;1.60;;;1.30;;
16813;SDS011;8524;57.650;11.926;2022-08-11T09:25:28;2.72;;;1.40;;
16813;SDS011;8524;57.650;11.926;2022-08-11T09:28:14;1.60;;;1.30;;
16813;SDS011;8524;57.650;11.926;2022-08-11T09:30:42;2.03;;;1.50;;
16813;SDS011;8524;57.650;11.926;2022-08-11T09:33:11;1.97;;;1.50;;
16813;SDS011;8524;57.650;11.926;2022-08-11T09:35:42;2.43;;;1.10;;
16813;SDS011;8524;57.650;11.926;2022-08-11T09:38:12;1.83;;;1.23;;
16813;SDS011;8524;57.650;11.926;2022-08-11T09:40:58;1.55;;;1.38;;
16813;SDS011;8524;57.650;11.926;2022-08-11T09:43:29;2.50;;;1.20;;
16813;SDS011;8524;57.650;11.926;2022-08-11T09:46:16;1.70;;;1.10;;
16813;SDS011;8524;57.650;11.926;2022-08-11T09:48:50;3.10;;;1.10;;
16813;SDS011;8524;57.650;11.926;2022-08-11T09:51:22;1.45;;;1.10;;
16813;SDS011;8524;57.650;11.926;2022-08-11T09:53:50;1.55;;;1.10;;
16813;SDS011;8524;57.650;11.926;2022-08-11T09:56:19;1.80;;;1.05;;
16813;SDS011;8524;57.650;11.926;2022-08-11T09:59:07;1.90;;;1.00;;
16813;SDS011;8524;57.650;11.926;2022-08-11T10:01:37;1.33;;;1.20;;
16813;SDS011;8524;57.650;11.926;2022-08-11T10:04:16;1.58;;;1.10;;
16813;SDS011;8524;57.650;11.926;2022-08-11T10:06:48;1.85;;;0.80;;
16813;SDS011;8524;57.650;11.926;2022-08-11T10:09:34;2.10;;;1.13;;
16813;SDS011;8524;57.650;11.926;2022-08-11T10:12:05;1.15;;;0.93;;
16813;SDS011;8524;57.650;11.926;2022-08-11T10:14:36;1.80;;;1.20;;
16813;SDS011;8524;57.650;11.926;2022-08-11T10:17:26;1.23;;;1.10;;
16813;SDS011;8524;57.650;11.926;2022-08-11T10:19:58;2.30;;;0.90;;
16813;SDS011;8524;57.650;11.926;2022-08-11T10:22:30;2.35;;;1.00;;
16813;SDS011;8524;57.650;11.926;2022-08-11T10:25:15;1.00;;;0.90;;
16813;SDS011;8524;57.650;11.926;2022-08-11T10:28:02;1.00;;;0.87;;
16813;SDS011;8524;57.650;11.926;2022-08-11T10:30:30;1.00;;;0.80;;
16813;SDS011;8524;57.650;11.926;2022-08-11T10:33:15;0.97;;;0.97;;
16813;SDS011;8524;57.650;11.926;2022-08-11T10:36:01;1.55;;;1.15;;
16813;SDS011;8524;57.650;11.926;2022-08-11T10:38:31;1.27;;;1.17;;
16813;SDS011;8524;57.650;11.926;2022-08-11T10:41:00;1.63;;;1.20;;
16813;SDS011;8524;57.650;11.926;2022-08-11T10:43:45;1.83;;;1.00;;
16813;SDS011;8524;57.650;11.926;2022-08-11T10:46:12;1.10;;;0.90;;
16813;SDS011;8524;57.650;11.926;2022-08-11T10:48:57;1.20;;;1.13;;
16813;SDS011;8524;57.650;11.926;2022-08-11T10:51:25;1.80;;;1.20;;
16813;SDS011;8524;57.650;11.926;2022-08-11T10:54:12;1.53;;;1.43;;
16813;SDS011;8524;57.650;11.926;2022-08-11T10:56:58;1.50;;;1.20;;
16813;SDS011;8524;57.650;11.926;2022-08-11T10:59:44;2.37;;;1.50;;
16813;SDS011;8524;57.650;11.926;2022-08-11T11:02:12;1.60;;;1.50;;
16813;SDS011;8524;57.650;11.926;2022-08-11T11:04:45;1.67;;;1.20;;
16813;SDS011;8524;57.650;11.926;2022-08-11T11:07:35;2.10;;;1.70;;
16813;SDS011;8524;57.650;11.926;2022-08-11T11:10:05;1.63;;;1.40;;
16813;SDS011;8524;57.650;11.926;2022-08-11T11:12:35;1.83;;;1.30;;
16813;SDS011;8524;57.650;11.926;2022-08-11T11:15:23;1.47;;;1.30;;
16813;SDS011;8524;57.650;11.926;2022-08-11T11:18:14;1.40;;;1.30;;
16813;SDS011;8524;57.650;11.926;2022-08-11T11:20:46;1.50;;;1.40;;
16813;SDS011;8524;57.650;11.926;2022-08-11T11:23:18;1.97;;;1.50;;
16813;SDS011;8524;57.650;11.926;2022-08-11T11:26:07;1.90;;;1.30;;
16813;SDS011;8524;57.650;11.926;2022-08-11T11:29:10;1.47;;;1.37;;
16813;SDS011;8524;57.650;11.926;2022-08-11T11:31:51;1.30;;;1.27;;
16813;SDS011;8524;57.650;11.926;2022-08-11T11:34:30;1.37;;;1.27;;
16813;SDS011;8524;57.650;11.926;2022-08-11T11:37:07;1.90;;;1.27;;
16813;SDS011;8524;57.650;11.926;2022-08-11T11:39:37;2.35;;;1.50;;
16813;SDS011;8524;57.650;11.926;2022-08-11T11:42:06;1.20;;;1.10;;
16813;SDS011;8524;57.650;11.926;2022-08-11T11:44:35;1.30;;;1.20;;
16813;SDS011;8524;57.650;11.926;2022-08-11T11:47:04;2.27;;;1.50;;
16813;SDS011;8524;57.650;11.926;2022-08-11T11:49:32;1.27;;;1.10;;
16813;SDS011;8524;57.650;11.926;2022-08-11T11:52:03;2.90;;;1.27;;
16813;SDS011;8524;57.650;11.926;2022-08-11T11:54:33;1.37;;;1.27;;
16813;SDS011;8524;57.650;11.926;2022-08-11T11:57:03;1.43;;;1.20;;
16813;SDS011;8524;57.650;11.926;2022-08-11T11:59:45;1.60;;;1.30;;
16813;SDS011;8524;57.650;11.926;2022-08-11T12:02:33;2.53;;;1.20;;
16813;SDS011;8524;57.650;11.926;2022-08-11T12:05:01;1.60;;;1.33;;
16813;SDS011;8524;57.650;11.926;2022-08-11T12:07:29;1.87;;;1.10;;
16813;SDS011;8524;57.650;11.926;2022-08-11T12:10:15;2.10;;;1.20;;
16813;SDS011;8524;57.650;11.926;2022-08-11T12:12:43;1.40;;;1.20;;
16813;SDS011;8524;57.650;11.926;2022-08-11T12:15:30;2.13;;;1.20;;
16813;SDS011;8524;57.650;11.926;2022-08-11T12:17:58;1.30;;;1.20;;
16813;SDS011;8524;57.650;11.926;2022-08-11T12:20:26;1.50;;;1.30;;
16813;SDS011;8524;57.650;11.926;2022-08-11T12:22:54;1.30;;;1.20;;
16813;SDS011;8524;57.650;11.926;2022-08-11T12:25:40;1.70;;;1.30;;
16813;SDS011;8524;57.650;11.926;2022-08-11T12:28:27;1.40;;;1.30;;
16813;SDS011;8524;57.650;11.926;2022-08-11T12:30:56;1.40;;;1.10;;
16813;SDS011;8524;57.650;11.926;2022-08-11T12:33:23;0.93;;;0.90;;
16813;SDS011;8524;57.650;11.926;2022-08-11T12:35:55;1.33;;;0.90;;
16813;SDS011;8524;57.650;11.926;2022-08-11T12:38:24;2.15;;;0.90;;
16813;SDS011;8524;57.650;11.926;2022-08-11T12:40:51;1.77;;;1.10;;
16813;SDS011;8524;57.650;11.926;2022-08-11T12:43:37;2.15;;;1.10;;
16813;SDS011;8524;57.650;11.926;2022-08-11T12:46:30;1.60;;;1.23;;
16813;SDS011;8524;57.650;11.926;2022-08-11T12:49:03;1.20;;;1.00;;
16813;SDS011;8524;57.650;11.926;2022-08-11T12:51:53;1.45;;;1.02;;
16813;SDS011;8524;57.650;11.926;2022-08-11T12:54:25;2.47;;;1.30;;
16813;SDS011;8524;57.650;11.926;2022-08-11T12:56:57;1.35;;;0.95;;
16813;SDS011;8524;57.650;11.926;2022-08-11T12:59:43;2.05;;;1.13;;
16813;SDS011;8524;57.650;11.926;2022-08-11T13:02:30;1.23;;;1.00;;
16813;SDS011;8524;57.650;11.926;2022-08-11T13:05:15;1.20;;;1.10;;
16813;SDS011;8524;57.650;11.926;2022-08-11T13:07:44;1.50;;;1.17;;
16813;SDS011;8524;57.650;11.926;2022-08-11T13:10:12;1.35;;;1.10;;
16813;SDS011;8524;57.650;11.926;2022-08-11T13:13:03;1.40;;;1.00;;
16813;SDS011;8524;57.650;11.926;2022-08-11T13:15:33;1.48;;;1.10;;
16813;SDS011;8524;57.650;11.926;2022-08-11T13:18:03;1.33;;;1.00;;
16813;SDS011;8524;57.650;11.926;2022-08-11T13:20:32;1.00;;;0.82;;
16813;SDS011;8524;57.650;11.926;2022-08-11T13:23:00;1.05;;;0.95;;
16813;SDS011;8524;57.650;11.926;2022-08-11T13:25:29;1.67;;;0.90;;
16813;SDS011;8524;57.650;11.926;2022-08-11T13:27:58;2.53;;;0.93;;
16813;SDS011;8524;57.650;11.926;2022-08-11T13:30:27;1.27;;;1.00;;
16813;SDS011;8524;57.650;11.926;2022-08-11T13:33:16;1.00;;;0.90;;
16813;SDS011;8524;57.650;11.926;2022-08-11T13:35:44;1.10;;;0.90;;
16813;SDS011;8524;57.650;11.926;2022-08-11T13:38:13;1.10;;;0.90;;
16813;SDS011;8524;57.650;11.926;2022-08-11T13:40:46;1.10;;;0.90;;
16813;SDS011;8524;57.650;11.926;2022-08-11T13:43:13;0.80;;;0.80;;
16813;SDS011;8524;57.650;11.926;2022-08-11T13:45:42;1.07;;;0.97;;
16813;SDS011;8524;57.650;11.926;2022-08-11T13:48:11;1.13;;;0.80;;
16813;SDS011;8524;57.650;11.926;2022-08-11T13:50:40;1.25;;;1.10;;
16813;SDS011;8524;57.650;11.926;2022-08-11T13:53:28;0.68;;;0.68;;
16813;SDS011;8524;57.650;11.926;2022-08-11T13:55:56;1.05;;;0.90;;
16813;SDS011;8524;57.650;11.926;2022-08-11T13:58:25;1.73;;;1.15;;
16813;SDS011;8524;57.650;11.926;2022-08-11T14:00:54;1.38;;;0.82;;
16813;SDS011;8524;57.650;11.926;2022-08-11T14:03:22;0.73;;;0.73;;
16813;SDS011;8524;57.650;11.926;2022-08-11T14:05:53;0.95;;;0.70;;
16813;SDS011;8524;57.650;11.926;2022-08-11T14:08:28;0.80;;;0.80;;
16813;SDS011;8524;57.650;11.926;2022-08-11T14:11:01;1.58;;;0.82;;
16813;SDS011;8524;57.650;11.926;2022-08-11T14:13:47;0.73;;;0.70;;
16813;SDS011;8524;57.650;11.926;2022-08-11T14:16:18;1.27;;;0.90;;
16813;SDS011;8524;57.650;11.926;2022-08-11T14:18:51;1.13;;;1.00;;
16813;SDS011;8524;57.650;11.926;2022-08-11T14:21:24;1.42;;;1.10;;
16813;SDS011;8524;57.650;11.926;2022-08-11T14:24:10;0.90;;;0.80;;
16813;SDS011;8524;57.650;11.926;2022-08-11T14:26:38;1.35;;;1.00;;
16813;SDS011;8524;57.650;11.926;2022-08-11T14:29:08;0.88;;;0.88;;
16813;SDS011;8524;57.650;11.926;2022-08-11T14:31:39;1.50;;;0.90;;
16813;SDS011;8524;57.650;11.926;2022-08-11T14:34:11;1.50;;;1.08;;
16813;SDS011;8524;57.650;11.926;2022-08-11T14:36:42;1.20;;;1.10;;
16813;SDS011;8524;57.650;11.926;2022-08-11T14:39:12;2.05;;;1.00;;
16813;SDS011;8524;57.650;11.926;2022-08-11T14:41:42;0.80;;;0.80;;
16813;SDS011;8524;57.650;11.926;2022-08-11T14:44:29;1.40;;;0.88;;
16813;SDS011;8524;57.650;11.926;2022-08-11T14:47:16;1.55;;;0.85;;
16813;SDS011;8524;57.650;11.926;2022-08-11T14:49:45;1.45;;;1.00;;
16813;SDS011;8524;57.650;11.926;2022-08-11T14:52:15;2.20;;;1.10;;
16813;SDS011;8524;57.650;11.926;2022-08-11T14:54:45;1.10;;;1.00;;
16813;SDS011;8524;57.650;11.926;2022-08-11T14:57:32;2.40;;;1.00;;
16813;SDS011;8524;57.650;11.926;2022-08-11T15:00:03;1.05;;;1.00;;
16813;SDS011;8524;57.650;11.926;2022-08-11T15:02:32;1.10;;;1.00;;
16813;SDS011;8524;57.650;11.926;2022-08-11T15:05:20;1.25;;;0.90;;
16813;SDS011;8524;57.650;11.926;2022-08-11T15:07:50;2.10;;;1.10;;
16813;SDS011;8524;57.650;11.926;2022-08-11T15:10:19;1.13;;;0.80;;
16813;SDS011;8524;57.650;11.926;2022-08-11T15:12:47;1.00;;;0.98;;
16813;SDS011;8524;57.650;11.926;2022-08-11T15:15:15;1.17;;;0.93;;
16813;SDS011;8524;57.650;11.926;2022-08-11T15:18:05;1.73;;;1.00;;
16813;SDS011;8524;57.650;11.926;2022-08-11T15:20:32;1.00;;;0.90;;
16813;SDS011;8524;57.650;11.926;2022-08-11T15:23:18;0.80;;;0.80;;
16813;SDS011;8524;57.650;11.926;2022-08-11T15:26:04;1.85;;;1.02;;
16813;SDS011;8524;57.650;11.926;2022-08-11T15:28:36;0.90;;;0.90;;
16813;SDS011;8524;57.650;11.926;2022-08-11T15:31:24;1.33;;;1.00;;
16813;SDS011;8524;57.650;11.926;2022-08-11T15:34:11;0.73;;;0.73;;
16813;SDS011;8524;57.650;11.926;2022-08-11T15:36:58;1.40;;;1.00;;
16813;SDS011;8524;57.650;11.926;2022-08-11T15:39:48;1.13;;;1.00;;
16813;SDS011;8524;57.650;11.926;2022-08-11T15:42:48;1.00;;;0.80;;
16813;SDS011;8524;57.650;11.926;2022-08-11T15:45:38;0.80;;;0.80;;
16813;SDS011;8524;57.650;11.926;2022-08-11T15:48:15;1.83;;;0.80;;
16813;SDS011;8524;57.650;11.926;2022-08-11T15:50:47;1.25;;;0.80;;
16813;SDS011;8524;57.650;11.926;2022-08-11T15:53:19;1.38;;;1.15;;
16813;SDS011;8524;57.650;11.926;2022-08-11T15:55:52;1.08;;;0.90;;
16813;SDS011;8524;57.650;11.926;2022-08-11T15:58:21;0.80;;;0.80;;
16813;SDS011;8524;57.650;11.926;2022-08-11T16:01:08;0.82;;;0.82;;
16813;SDS011;8524;57.650;11.926;2022-08-11T16:03:55;1.85;;;0.98;;
16813;SDS011;8524;57.650;11.926;2022-08-11T16:06:40;1.30;;;1.13;;
16813;SDS011;8524;57.650;11.926;2022-08-11T16:09:17;0.98;;;0.85;;
16813;SDS011;8524;57.650;11.926;2022-08-11T16:11:50;0.80;;;0.80;;
16813;SDS011;8524;57.650;11.926;2022-08-11T16:14:19;1.42;;;0.90;;
16813;SDS011;8524;57.650;11.926;2022-08-11T16:17:09;1.98;;;1.20;;
16813;SDS011;8524;57.650;11.926;2022-08-11T16:19:38;1.05;;;1.00;;
16813;SDS011;8524;57.650;11.926;2022-08-11T16:22:08;1.15;;;0.98;;
16813;SDS011;8524;57.650;11.926;2022-08-11T16:24:40;1.05;;;0.95;;
16813;SDS011;8524;57.650;11.926;2022-08-11T16:27:11;1.13;;;0.95;;
16813;SDS011;8524;57.650;11.926;2022-08-11T16:29:44;1.15;;;0.90;;
16813;SDS011;8524;57.650;11.926;2022-08-11T16:32:14;1.17;;;0.95;;
16813;SDS011;8524;57.650;11.926;2022-08-11T16:34:45;1.35;;;0.77;;
16813;SDS011;8524;57.650;11.926;2022-08-11T16:37:33;1.20;;;1.10;;
16813;SDS011;8524;57.650;11.926;2022-08-11T16:40:19;1.63;;;1.00;;
16813;SDS011;8524;57.650;11.926;2022-08-11T16:42:49;1.02;;;0.93;;
16813;SDS011;8524;57.650;11.926;2022-08-11T16:45:35;0.90;;;0.80;;
16813;SDS011;8524;57.650;11.926;2022-08-11T16:48:21;1.02;;;0.90;;
16813;SDS011;8524;57.650;11.926;2022-08-11T16:50:52;1.05;;;0.90;;
16813;SDS011;8524;57.650;11.926;2022-08-11T16:53:20;1.38;;;0.85;;
16813;SDS011;8524;57.650;11.926;2022-08-11T16:55:47;0.88;;;0.88;;
16813;SDS011;8524;57.650;11.926;2022-08-11T16:58:18;1.23;;;1.02;;
16813;SDS011;8524;57.650;11.926;2022-08-11T17:01:06;1.45;;;1.02;;
16813;SDS011;8524;57.650;11.926;2022-08-11T17:03:35;0.80;;;0.80;;
16813;SDS011;8524;57.650;11.926;2022-08-11T17:06:34;1.20;;;1.10;;
16813;SDS011;8524;57.650;11.926;2022-08-11T17:09:22;1.23;;;1.00;;
16813;SDS011;8524;57.650;11.926;2022-08-11T17:12:09;1.27;;;1.07;;